Flight Track Log - Related Links

Times and Time Zones

All times are in EDT time to prevent confusion due to time zone crossing. See the EJA951 flight status page for this flight to view local times or setup timezone preferences in your user account.

Time Position Orientation Groundspeed Altitude Reporting Facility
EDT Latitude Longitude Course Direction KTS MPH feet Rate Location/Type
Fri 05:21:31 AM 42.7631 -73.8089 286° West 167 192 1,100  Level Boston Center
Fri 05:23:03 AM 42.7769 -73.8742 286° West 212 244 6,700 3,789 Climbing Boston Center
Fri 05:24:03 AM 42.7103 -73.8642 174° South 175 201 10,700 3,250 Climbing Boston Center
Fri 05:25:03 AM 42.6292 -73.8594 178° South 227 261 13,200 1,650 Climbing Boston Center
Fri 05:26:03 AM 42.5125 -73.8597 180° South 351 404 14,000 400 Climbing Boston Center
Fri 05:27:03 AM 42.4103 -73.8600 180° South 396 456 14,000  Level Boston Center
Fri 05:28:03 AM 42.2894 -73.8631 181° South 407 468 14,000  Level Boston Center
Fri 05:29:03 AM 42.1892 -73.8636 180° South 401 461 14,000  Level Boston Center
Fri 05:30:03 AM 42.0642 -73.8664 181° South 401 461 14,000  Level Boston Center
Fri 05:31:03 AM 41.9536 -73.8722 182° South 401 461 14,000 -100 Level Boston Center
Fri 05:32:03 AM 41.8536 -73.8728 180° South 406 467 13,800 -1,200 Descending Boston Center
Fri 05:33:03 AM 41.7389 -73.8756 181° South 395 455 11,600 -1,950 Descending Boston Center
Fri 05:34:03 AM 41.6472 -73.8792 182° South 361 415 9,900 -1,826 Descending Boston Center
Fri 05:34:35 AM 41.6000 -73.8833 184° South 302 348 8,800 -1,761 Descending New York TRACON
Fri 05:35:35 AM 41.5167 -73.8833 180° South 286 329 7,200 -1,550 Descending New York TRACON
Fri 05:36:35 AM 41.4500 -73.8833 180° South 270 311 5,700 -1,450 Descending New York TRACON
Fri 05:37:35 AM 41.3667 -73.8833 180° South 261 300 4,300 -1,339 Descending New York TRACON
Fri 05:38:36 AM 41.3000 -73.8833 180° South 255 293 3,000 -1,041 Descending New York TRACON
Fri 05:39:36 AM 41.2333 -73.8333 151° Southeast 262 302 2,200 -500 Descending New York TRACON
Fri 05:40:36 AM 41.1833 -73.8000 153° Southeast 228 262 2,000 -250 Descending New York TRACON
Fri 05:41:36 AM 41.1333 -73.7500 143° Southeast 189 217 1,700 -550 Descending New York TRACON
Fri 05:42:36 AM 41.1000 -73.7333 159° South 148 170 900 -800 Descending New York TRACON
Fri 05:44:00 AM 41.0669 -73.7076 255° West  Level Estimated
Fri 05:51:00 AM 41.0667 -73.7000 255° West  Level FlightAware Approximate
Fri 05:52:00 AM 41.0669 -73.7076 255° West  Level Estimated
Fri 05:53:00 AM 41.0667 -73.7000 255° West  Level FlightAware Approximate

Login

Don't have an account? Register now (free) for customized features, flight alerts, and more!